sensor_id;sensor_type;location;lat;lon;timestamp;P1;durP1;ratioP1;P2;durP2;ratioP2
13309;SDS011;6723;48.256;16.402;2024-02-26T00:00:38;4.37;;;2.50;;
13309;SDS011;6723;48.256;16.402;2024-02-26T00:03:04;4.50;;;2.50;;
13309;SDS011;6723;48.256;16.402;2024-02-26T00:05:30;5.00;;;2.60;;
13309;SDS011;6723;48.256;16.402;2024-02-26T00:07:56;4.53;;;2.37;;
13309;SDS011;6723;48.256;16.402;2024-02-26T00:10:22;4.50;;;2.83;;
13309;SDS011;6723;48.256;16.402;2024-02-26T00:12:49;3.80;;;2.60;;
13309;SDS011;6723;48.256;16.402;2024-02-26T00:15:15;6.47;;;2.80;;
13309;SDS011;6723;48.256;16.402;2024-02-26T00:17:40;5.93;;;2.60;;
13309;SDS011;6723;48.256;16.402;2024-02-26T00:20:06;5.60;;;2.60;;
13309;SDS011;6723;48.256;16.402;2024-02-26T00:22:36;3.43;;;2.47;;
13309;SDS011;6723;48.256;16.402;2024-02-26T00:25:02;7.50;;;2.90;;
13309;SDS011;6723;48.256;16.402;2024-02-26T00:27:29;6.07;;;2.53;;
13309;SDS011;6723;48.256;16.402;2024-02-26T00:29:54;5.67;;;2.37;;
13309;SDS011;6723;48.256;16.402;2024-02-26T00:32:20;4.57;;;2.53;;
13309;SDS011;6723;48.256;16.402;2024-02-26T00:34:46;4.17;;;2.50;;
13309;SDS011;6723;48.256;16.402;2024-02-26T00:37:12;3.43;;;2.93;;
13309;SDS011;6723;48.256;16.402;2024-02-26T00:39:38;4.13;;;2.83;;
13309;SDS011;6723;48.256;16.402;2024-02-26T00:42:04;8.57;;;3.60;;
13309;SDS011;6723;48.256;16.402;2024-02-26T00:44:30;5.17;;;3.00;;
13309;SDS011;6723;48.256;16.402;2024-02-26T00:46:56;5.93;;;2.97;;
13309;SDS011;6723;48.256;16.402;2024-02-26T00:49:22;5.03;;;3.20;;
13309;SDS011;6723;48.256;16.402;2024-02-26T00:51:47;4.73;;;3.10;;
13309;SDS011;6723;48.256;16.402;2024-02-26T00:54:13;5.93;;;3.53;;
13309;SDS011;6723;48.256;16.402;2024-02-26T00:56:39;4.33;;;3.33;;
13309;SDS011;6723;48.256;16.402;2024-02-26T00:59:05;6.63;;;3.57;;
13309;SDS011;6723;48.256;16.402;2024-02-26T01:01:31;7.53;;;4.37;;
13309;SDS011;6723;48.256;16.402;2024-02-26T01:03:57;6.87;;;3.40;;
13309;SDS011;6723;48.256;16.402;2024-02-26T01:06:23;5.17;;;3.87;;
13309;SDS011;6723;48.256;16.402;2024-02-26T01:08:48;6.70;;;3.83;;
13309;SDS011;6723;48.256;16.402;2024-02-26T01:11:14;6.07;;;3.50;;
13309;SDS011;6723;48.256;16.402;2024-02-26T01:13:40;7.27;;;4.20;;
13309;SDS011;6723;48.256;16.402;2024-02-26T01:16:06;7.23;;;3.80;;
13309;SDS011;6723;48.256;16.402;2024-02-26T01:18:32;5.77;;;3.63;;
13309;SDS011;6723;48.256;16.402;2024-02-26T01:20:58;6.13;;;3.30;;
13309;SDS011;6723;48.256;16.402;2024-02-26T01:23:23;9.63;;;3.83;;
13309;SDS011;6723;48.256;16.402;2024-02-26T01:25:49;5.83;;;3.57;;
13309;SDS011;6723;48.256;16.402;2024-02-26T01:28:15;6.53;;;3.53;;
13309;SDS011;6723;48.256;16.402;2024-02-26T01:30:41;7.17;;;3.97;;
13309;SDS011;6723;48.256;16.402;2024-02-26T01:33:07;6.87;;;3.83;;
13309;SDS011;6723;48.256;16.402;2024-02-26T01:35:33;6.03;;;3.70;;
13309;SDS011;6723;48.256;16.402;2024-02-26T01:37:59;8.87;;;4.07;;
13309;SDS011;6723;48.256;16.402;2024-02-26T01:40:28;5.37;;;3.83;;
13309;SDS011;6723;48.256;16.402;2024-02-26T01:42:55;7.27;;;4.30;;
13309;SDS011;6723;48.256;16.402;2024-02-26T01:45:20;5.63;;;4.10;;
13309;SDS011;6723;48.256;16.402;2024-02-26T01:47:52;5.90;;;4.23;;
13309;SDS011;6723;48.256;16.402;2024-02-26T01:50:18;5.33;;;3.90;;
13309;SDS011;6723;48.256;16.402;2024-02-26T01:52:49;6.67;;;4.60;;
13309;SDS011;6723;48.256;16.402;2024-02-26T01:55:17;7.37;;;4.30;;
13309;SDS011;6723;48.256;16.402;2024-02-26T01:57:44;6.00;;;4.50;;
13309;SDS011;6723;48.256;16.402;2024-02-26T02:00:13;7.27;;;4.57;;
13309;SDS011;6723;48.256;16.402;2024-02-26T02:02:41;7.30;;;4.40;;
13309;SDS011;6723;48.256;16.402;2024-02-26T02:05:09;5.47;;;4.30;;
13309;SDS011;6723;48.256;16.402;2024-02-26T02:07:37;10.50;;;4.73;;
13309;SDS011;6723;48.256;16.402;2024-02-26T02:10:03;9.17;;;5.03;;
13309;SDS011;6723;48.256;16.402;2024-02-26T02:12:30;6.23;;;4.50;;
13309;SDS011;6723;48.256;16.402;2024-02-26T02:14:58;6.40;;;4.50;;
13309;SDS011;6723;48.256;16.402;2024-02-26T02:17:27;6.77;;;4.10;;
13309;SDS011;6723;48.256;16.402;2024-02-26T02:19:53;8.13;;;4.40;;
13309;SDS011;6723;48.256;16.402;2024-02-26T02:22:19;6.50;;;4.27;;
13309;SDS011;6723;48.256;16.402;2024-02-26T02:24:45;7.80;;;4.47;;
13309;SDS011;6723;48.256;16.402;2024-02-26T02:27:11;6.87;;;4.23;;
13309;SDS011;6723;48.256;16.402;2024-02-26T02:29:37;6.07;;;3.90;;
13309;SDS011;6723;48.256;16.402;2024-02-26T02:32:03;8.10;;;3.80;;
13309;SDS011;6723;48.256;16.402;2024-02-26T02:34:30;6.13;;;3.93;;
13309;SDS011;6723;48.256;16.402;2024-02-26T02:36:57;6.87;;;4.10;;
13309;SDS011;6723;48.256;16.402;2024-02-26T02:39:22;6.27;;;4.07;;
13309;SDS011;6723;48.256;16.402;2024-02-26T02:41:48;5.10;;;3.57;;
13309;SDS011;6723;48.256;16.402;2024-02-26T02:44:14;8.00;;;3.60;;
13309;SDS011;6723;48.256;16.402;2024-02-26T02:46:40;6.03;;;3.30;;
13309;SDS011;6723;48.256;16.402;2024-02-26T02:49:09;5.13;;;3.27;;
13309;SDS011;6723;48.256;16.402;2024-02-26T02:51:39;5.50;;;3.50;;
13309;SDS011;6723;48.256;16.402;2024-02-26T02:54:05;5.77;;;3.43;;
13309;SDS011;6723;48.256;16.402;2024-02-26T02:56:30;4.70;;;3.50;;
13309;SDS011;6723;48.256;16.402;2024-02-26T02:58:56;6.67;;;3.40;;
13309;SDS011;6723;48.256;16.402;2024-02-26T03:01:22;5.10;;;3.20;;
13309;SDS011;6723;48.256;16.402;2024-02-26T03:03:48;4.97;;;3.57;;
13309;SDS011;6723;48.256;16.402;2024-02-26T03:06:13;5.20;;;3.83;;
13309;SDS011;6723;48.256;16.402;2024-02-26T03:08:39;7.30;;;4.30;;
13309;SDS011;6723;48.256;16.402;2024-02-26T03:11:07;6.73;;;4.20;;
13309;SDS011;6723;48.256;16.402;2024-02-26T03:13:32;5.70;;;4.40;;
13309;SDS011;6723;48.256;16.402;2024-02-26T03:16:03;9.13;;;4.40;;
13309;SDS011;6723;48.256;16.402;2024-02-26T03:18:30;6.20;;;4.10;;
13309;SDS011;6723;48.256;16.402;2024-02-26T03:20:55;6.03;;;3.70;;
13309;SDS011;6723;48.256;16.402;2024-02-26T03:23:21;7.10;;;4.10;;
13309;SDS011;6723;48.256;16.402;2024-02-26T03:25:47;5.90;;;3.37;;
13309;SDS011;6723;48.256;16.402;2024-02-26T03:28:13;5.53;;;3.10;;
13309;SDS011;6723;48.256;16.402;2024-02-26T03:30:39;4.87;;;3.30;;
13309;SDS011;6723;48.256;16.402;2024-02-26T03:33:04;8.00;;;3.93;;
13309;SDS011;6723;48.256;16.402;2024-02-26T03:35:30;4.97;;;3.07;;
13309;SDS011;6723;48.256;16.402;2024-02-26T03:37:56;4.90;;;3.50;;
13309;SDS011;6723;48.256;16.402;2024-02-26T03:40:22;6.23;;;2.80;;
13309;SDS011;6723;48.256;16.402;2024-02-26T03:42:48;4.50;;;2.93;;
13309;SDS011;6723;48.256;16.402;2024-02-26T03:45:14;7.13;;;2.97;;
13309;SDS011;6723;48.256;16.402;2024-02-26T03:47:39;5.27;;;3.10;;
13309;SDS011;6723;48.256;16.402;2024-02-26T03:50:05;4.27;;;2.67;;
13309;SDS011;6723;48.256;16.402;2024-02-26T03:52:32;4.77;;;3.00;;
13309;SDS011;6723;48.256;16.402;2024-02-26T03:54:59;3.87;;;2.60;;
13309;SDS011;6723;48.256;16.402;2024-02-26T03:57:25;4.23;;;2.70;;
13309;SDS011;6723;48.256;16.402;2024-02-26T03:59:50;5.77;;;3.07;;
13309;SDS011;6723;48.256;16.402;2024-02-26T04:02:16;4.90;;;2.80;;
13309;SDS011;6723;48.256;16.402;2024-02-26T04:04:45;4.87;;;3.03;;
13309;SDS011;6723;48.256;16.402;2024-02-26T04:07:12;4.40;;;3.10;;
13309;SDS011;6723;48.256;16.402;2024-02-26T04:09:38;7.37;;;3.50;;
13309;SDS011;6723;48.256;16.402;2024-02-26T04:12:08;6.50;;;3.33;;
13309;SDS011;6723;48.256;16.402;2024-02-26T04:14:35;6.07;;;3.23;;
13309;SDS011;6723;48.256;16.402;2024-02-26T04:17:01;3.97;;;2.87;;
13309;SDS011;6723;48.256;16.402;2024-02-26T04:19:27;4.77;;;3.20;;
13309;SDS011;6723;48.256;16.402;2024-02-26T04:21:53;4.67;;;3.00;;
13309;SDS011;6723;48.256;16.402;2024-02-26T04:24:19;4.27;;;3.03;;
13309;SDS011;6723;48.256;16.402;2024-02-26T04:26:45;4.53;;;3.20;;
13309;SDS011;6723;48.256;16.402;2024-02-26T04:29:10;5.43;;;3.40;;
13309;SDS011;6723;48.256;16.402;2024-02-26T04:31:37;7.70;;;3.87;;
13309;SDS011;6723;48.256;16.402;2024-02-26T04:34:04;7.40;;;3.80;;
13309;SDS011;6723;48.256;16.402;2024-02-26T04:36:29;5.50;;;3.93;;
13309;SDS011;6723;48.256;16.402;2024-02-26T04:38:55;6.07;;;3.50;;
13309;SDS011;6723;48.256;16.402;2024-02-26T04:41:21;6.07;;;3.70;;
13309;SDS011;6723;48.256;16.402;2024-02-26T04:43:47;5.17;;;3.60;;
13309;SDS011;6723;48.256;16.402;2024-02-26T04:46:13;6.13;;;4.00;;
13309;SDS011;6723;48.256;16.402;2024-02-26T04:48:39;5.87;;;4.23;;
13309;SDS011;6723;48.256;16.402;2024-02-26T04:51:06;7.37;;;5.00;;
13309;SDS011;6723;48.256;16.402;2024-02-26T04:53:32;6.27;;;4.23;;
13309;SDS011;6723;48.256;16.402;2024-02-26T04:55:58;5.90;;;4.23;;
13309;SDS011;6723;48.256;16.402;2024-02-26T04:58:24;7.17;;;4.47;;
13309;SDS011;6723;48.256;16.402;2024-02-26T05:00:49;6.53;;;4.63;;
13309;SDS011;6723;48.256;16.402;2024-02-26T05:03:15;5.97;;;4.87;;
13309;SDS011;6723;48.256;16.402;2024-02-26T05:05:44;9.80;;;5.40;;
13309;SDS011;6723;48.256;16.402;2024-02-26T05:08:10;7.90;;;5.57;;
13309;SDS011;6723;48.256;16.402;2024-02-26T05:10:39;8.03;;;5.60;;
13309;SDS011;6723;48.256;16.402;2024-02-26T05:13:09;7.40;;;5.50;;
13309;SDS011;6723;48.256;16.402;2024-02-26T05:15:35;7.60;;;6.30;;
13309;SDS011;6723;48.256;16.402;2024-02-26T05:18:04;7.23;;;5.40;;
13309;SDS011;6723;48.256;16.402;2024-02-26T05:20:30;9.00;;;5.83;;
13309;SDS011;6723;48.256;16.402;2024-02-26T05:22:57;8.50;;;6.13;;
13309;SDS011;6723;48.256;16.402;2024-02-26T05:25:24;9.77;;;5.90;;
13309;SDS011;6723;48.256;16.402;2024-02-26T05:27:49;8.47;;;5.90;;
13309;SDS011;6723;48.256;16.402;2024-02-26T05:30:15;8.97;;;6.03;;
13309;SDS011;6723;48.256;16.402;2024-02-26T05:32:41;8.17;;;6.00;;
13309;SDS011;6723;48.256;16.402;2024-02-26T05:35:07;10.93;;;6.53;;
13309;SDS011;6723;48.256;16.402;2024-02-26T05:37:33;8.80;;;5.73;;
13309;SDS011;6723;48.256;16.402;2024-02-26T05:39:59;7.27;;;5.40;;
13309;SDS011;6723;48.256;16.402;2024-02-26T05:42:25;9.77;;;6.13;;
13309;SDS011;6723;48.256;16.402;2024-02-26T05:44:51;7.43;;;5.50;;
13309;SDS011;6723;48.256;16.402;2024-02-26T05:47:16;6.47;;;4.87;;
13309;SDS011;6723;48.256;16.402;2024-02-26T05:49:43;6.67;;;5.27;;
13309;SDS011;6723;48.256;16.402;2024-02-26T05:52:08;6.30;;;4.87;;
13309;SDS011;6723;48.256;16.402;2024-02-26T05:54:34;7.17;;;5.07;;
13309;SDS011;6723;48.256;16.402;2024-02-26T05:57:01;5.90;;;4.80;;
13309;SDS011;6723;48.256;16.402;2024-02-26T05:59:27;6.17;;;4.30;;
13309;SDS011;6723;48.256;16.402;2024-02-26T06:01:52;9.43;;;4.50;;
13309;SDS011;6723;48.256;16.402;2024-02-26T06:04:18;8.07;;;4.90;;
13309;SDS011;6723;48.256;16.402;2024-02-26T06:06:44;5.97;;;4.50;;
13309;SDS011;6723;48.256;16.402;2024-02-26T06:09:13;6.93;;;4.43;;
13309;SDS011;6723;48.256;16.402;2024-02-26T06:11:39;5.67;;;3.80;;
13309;SDS011;6723;48.256;16.402;2024-02-26T06:14:05;4.83;;;3.80;;
13309;SDS011;6723;48.256;16.402;2024-02-26T06:16:30;6.87;;;4.67;;
13309;SDS011;6723;48.256;16.402;2024-02-26T06:18:56;6.70;;;4.77;;
13309;SDS011;6723;48.256;16.402;2024-02-26T06:21:23;7.07;;;5.10;;
13309;SDS011;6723;48.256;16.402;2024-02-26T06:23:48;5.37;;;4.17;;
13309;SDS011;6723;48.256;16.402;2024-02-26T06:26:15;7.57;;;5.20;;
13309;SDS011;6723;48.256;16.402;2024-02-26T06:28:41;9.10;;;5.30;;
13309;SDS011;6723;48.256;16.402;2024-02-26T06:31:07;6.03;;;4.67;;
13309;SDS011;6723;48.256;16.402;2024-02-26T06:33:33;8.23;;;5.17;;
13309;SDS011;6723;48.256;16.402;2024-02-26T06:35:58;8.97;;;5.07;;
13309;SDS011;6723;48.256;16.402;2024-02-26T06:38:24;8.20;;;5.83;;
13309;SDS011;6723;48.256;16.402;2024-02-26T06:40:50;7.83;;;6.27;;
13309;SDS011;6723;48.256;16.402;2024-02-26T06:43:16;9.87;;;6.53;;
13309;SDS011;6723;48.256;16.402;2024-02-26T06:45:42;9.67;;;6.63;;
13309;SDS011;6723;48.256;16.402;2024-02-26T06:48:07;10.40;;;7.20;;
13309;SDS011;6723;48.256;16.402;2024-02-26T06:50:33;8.80;;;6.60;;
13309;SDS011;6723;48.256;16.402;2024-02-26T06:52:59;9.20;;;5.90;;
13309;SDS011;6723;48.256;16.402;2024-02-26T06:55:25;10.20;;;6.70;;
13309;SDS011;6723;48.256;16.402;2024-02-26T06:57:50;8.80;;;6.43;;
13309;SDS011;6723;48.256;16.402;2024-02-26T07:00:16;8.00;;;5.60;;
13309;SDS011;6723;48.256;16.402;2024-02-26T07:02:43;6.77;;;5.20;;
13309;SDS011;6723;48.256;16.402;2024-02-26T07:05:09;8.47;;;5.77;;
13309;SDS011;6723;48.256;16.402;2024-02-26T07:07:35;9.73;;;5.37;;
13309;SDS011;6723;48.256;16.402;2024-02-26T07:10:01;7.60;;;5.73;;
13309;SDS011;6723;48.256;16.402;2024-02-26T07:12:29;7.47;;;5.27;;
13309;SDS011;6723;48.256;16.402;2024-02-26T07:14:55;8.50;;;5.00;;
13309;SDS011;6723;48.256;16.402;2024-02-26T07:17:21;7.60;;;5.37;;
13309;SDS011;6723;48.256;16.402;2024-02-26T07:19:47;6.33;;;5.00;;
13309;SDS011;6723;48.256;16.402;2024-02-26T07:22:12;6.30;;;4.70;;
13309;SDS011;6723;48.256;16.402;2024-02-26T07:24:39;6.37;;;5.20;;
13309;SDS011;6723;48.256;16.402;2024-02-26T07:27:04;7.83;;;5.70;;
13309;SDS011;6723;48.256;16.402;2024-02-26T07:29:30;10.13;;;5.60;;
13309;SDS011;6723;48.256;16.402;2024-02-26T07:31:56;9.43;;;5.27;;
13309;SDS011;6723;48.256;16.402;2024-02-26T07:34:23;7.33;;;5.47;;
13309;SDS011;6723;48.256;16.402;2024-02-26T07:36:52;7.07;;;5.30;;
13309;SDS011;6723;48.256;16.402;2024-02-26T07:39:19;8.87;;;5.73;;
13309;SDS011;6723;48.256;16.402;2024-02-26T07:41:44;8.03;;;6.03;;
13309;SDS011;6723;48.256;16.402;2024-02-26T07:44:13;8.07;;;5.37;;
13309;SDS011;6723;48.256;16.402;2024-02-26T07:46:39;7.73;;;6.23;;
13309;SDS011;6723;48.256;16.402;2024-02-26T07:49:04;8.37;;;5.93;;
13309;SDS011;6723;48.256;16.402;2024-02-26T07:51:30;10.20;;;6.80;;
13309;SDS011;6723;48.256;16.402;2024-02-26T07:53:56;9.83;;;6.27;;
13309;SDS011;6723;48.256;16.402;2024-02-26T07:56:22;8.60;;;6.60;;
13309;SDS011;6723;48.256;16.402;2024-02-26T07:58:48;9.97;;;6.40;;
13309;SDS011;6723;48.256;16.402;2024-02-26T08:01:13;8.17;;;6.70;;
13309;SDS011;6723;48.256;16.402;2024-02-26T08:03:40;7.60;;;6.70;;
13309;SDS011;6723;48.256;16.402;2024-02-26T08:06:05;12.17;;;7.00;;
13309;SDS011;6723;48.256;16.402;2024-02-26T08:08:33;7.70;;;5.87;;
13309;SDS011;6723;48.256;16.402;2024-02-26T08:10:59;9.20;;;6.43;;
13309;SDS011;6723;48.256;16.402;2024-02-26T08:13:28;6.73;;;5.83;;
13309;SDS011;6723;48.256;16.402;2024-02-26T08:15:54;9.57;;;6.93;;
13309;SDS011;6723;48.256;16.402;2024-02-26T08:18:20;8.87;;;6.40;;
13309;SDS011;6723;48.256;16.402;2024-02-26T08:20:46;8.33;;;6.40;;
13309;SDS011;6723;48.256;16.402;2024-02-26T08:23:13;7.87;;;6.20;;
13309;SDS011;6723;48.256;16.402;2024-02-26T08:25:38;8.67;;;6.13;;
13309;SDS011;6723;48.256;16.402;2024-02-26T08:28:04;7.17;;;5.90;;
13309;SDS011;6723;48.256;16.402;2024-02-26T08:30:30;7.87;;;6.10;;
13309;SDS011;6723;48.256;16.402;2024-02-26T08:32:59;9.03;;;6.07;;
13309;SDS011;6723;48.256;16.402;2024-02-26T08:35:25;8.30;;;6.40;;
13309;SDS011;6723;48.256;16.402;2024-02-26T08:37:51;9.03;;;6.60;;
13309;SDS011;6723;48.256;16.402;2024-02-26T08:40:16;7.40;;;5.70;;
13309;SDS011;6723;48.256;16.402;2024-02-26T08:42:44;7.63;;;5.60;;
13309;SDS011;6723;48.256;16.402;2024-02-26T08:45:10;6.53;;;5.70;;
13309;SDS011;6723;48.256;16.402;2024-02-26T08:47:37;7.43;;;5.70;;
13309;SDS011;6723;48.256;16.402;2024-02-26T08:50:03;8.03;;;5.93;;
13309;SDS011;6723;48.256;16.402;2024-02-26T08:52:30;8.47;;;6.27;;
13309;SDS011;6723;48.256;16.402;2024-02-26T08:54:56;8.53;;;5.43;;
13309;SDS011;6723;48.256;16.402;2024-02-26T08:57:22;7.87;;;5.73;;
13309;SDS011;6723;48.256;16.402;2024-02-26T08:59:49;6.47;;;5.10;;
13309;SDS011;6723;48.256;16.402;2024-02-26T09:02:15;8.87;;;5.37;;
13309;SDS011;6723;48.256;16.402;2024-02-26T09:04:41;8.30;;;5.33;;
13309;SDS011;6723;48.256;16.402;2024-02-26T09:07:09;9.83;;;4.73;;
13309;SDS011;6723;48.256;16.402;2024-02-26T09:09:35;7.40;;;5.23;;
13309;SDS011;6723;48.256;16.402;2024-02-26T09:12:01;6.87;;;4.83;;
13309;SDS011;6723;48.256;16.402;2024-02-26T09:14:30;5.70;;;3.90;;
13309;SDS011;6723;48.256;16.402;2024-02-26T09:16:56;5.97;;;4.17;;
13309;SDS011;6723;48.256;16.402;2024-02-26T09:19:23;5.10;;;3.50;;
13309;SDS011;6723;48.256;16.402;2024-02-26T09:21:50;6.73;;;4.00;;
13309;SDS011;6723;48.256;16.402;2024-02-26T09:24:16;10.60;;;3.77;;
13309;SDS011;6723;48.256;16.402;2024-02-26T09:26:42;5.10;;;3.33;;
13309;SDS011;6723;48.256;16.402;2024-02-26T09:29:08;5.23;;;3.10;;
13309;SDS011;6723;48.256;16.402;2024-02-26T09:31:34;4.80;;;2.77;;
13309;SDS011;6723;48.256;16.402;2024-02-26T09:34:00;5.70;;;3.07;;
13309;SDS011;6723;48.256;16.402;2024-02-26T09:36:26;6.60;;;3.13;;
13309;SDS011;6723;48.256;16.402;2024-02-26T09:38:51;3.87;;;3.13;;
13309;SDS011;6723;48.256;16.402;2024-02-26T09:41:17;4.40;;;3.10;;
13309;SDS011;6723;48.256;16.402;2024-02-26T09:43:44;4.30;;;3.10;;
13309;SDS011;6723;48.256;16.402;2024-02-26T09:46:16;5.33;;;3.13;;
13309;SDS011;6723;48.256;16.402;2024-02-26T09:48:45;4.67;;;3.10;;
13309;SDS011;6723;48.256;16.402;2024-02-26T09:51:12;3.77;;;2.90;;
13309;SDS011;6723;48.256;16.402;2024-02-26T09:53:40;4.47;;;2.80;;
13309;SDS011;6723;48.256;16.402;2024-02-26T09:56:11;4.73;;;3.20;;
13309;SDS011;6723;48.256;16.402;2024-02-26T09:58:38;4.63;;;3.33;;
13309;SDS011;6723;48.256;16.402;2024-02-26T10:01:08;4.20;;;3.10;;
13309;SDS011;6723;48.256;16.402;2024-02-26T10:03:38;5.37;;;3.10;;
13309;SDS011;6723;48.256;16.402;2024-02-26T10:06:07;4.30;;;2.63;;
13309;SDS011;6723;48.256;16.402;2024-02-26T10:08:36;4.37;;;2.80;;
13309;SDS011;6723;48.256;16.402;2024-02-26T10:11:12;4.90;;;2.70;;
13309;SDS011;6723;48.256;16.402;2024-02-26T10:13:39;3.97;;;2.40;;
13309;SDS011;6723;48.256;16.402;2024-02-26T10:16:06;4.40;;;2.60;;
13309;SDS011;6723;48.256;16.402;2024-02-26T10:21:19;2.40;;;2.10;;
13309;SDS011;6723;48.256;16.402;2024-02-26T10:23:45;3.73;;;2.17;;
13309;SDS011;6723;48.256;16.402;2024-02-26T10:26:12;2.87;;;2.10;;
13309;SDS011;6723;48.256;16.402;2024-02-26T10:28:41;4.07;;;2.20;;
13309;SDS011;6723;48.256;16.402;2024-02-26T10:31:08;4.80;;;2.20;;
13309;SDS011;6723;48.256;16.402;2024-02-26T10:33:35;3.57;;;2.43;;
13309;SDS011;6723;48.256;16.402;2024-02-26T10:36:05;3.13;;;2.17;;
13309;SDS011;6723;48.256;16.402;2024-02-26T10:38:36;2.83;;;1.80;;
13309;SDS011;6723;48.256;16.402;2024-02-26T10:41:03;3.97;;;2.03;;
13309;SDS011;6723;48.256;16.402;2024-02-26T10:43:32;4.07;;;2.13;;
13309;SDS011;6723;48.256;16.402;2024-02-26T10:45:57;5.47;;;2.53;;
13309;SDS011;6723;48.256;16.402;2024-02-26T10:48:23;8.97;;;2.67;;
13309;SDS011;6723;48.256;16.402;2024-02-26T10:50:49;2.87;;;2.23;;
13309;SDS011;6723;48.256;16.402;2024-02-26T10:53:22;4.50;;;2.20;;
13309;SDS011;6723;48.256;16.402;2024-02-26T10:55:54;4.63;;;2.60;;
13309;SDS011;6723;48.256;16.402;2024-02-26T10:58:23;5.07;;;2.63;;
13309;SDS011;6723;48.256;16.402;2024-02-26T11:00:53;4.20;;;2.80;;
13309;SDS011;6723;48.256;16.402;2024-02-26T11:03:23;3.10;;;2.00;;
13309;SDS011;6723;48.256;16.402;2024-02-26T11:05:50;5.53;;;2.37;;
13309;SDS011;6723;48.256;16.402;2024-02-26T11:08:19;4.00;;;2.63;;
13309;SDS011;6723;48.256;16.402;2024-02-26T11:10:50;3.47;;;2.00;;
13309;SDS011;6723;48.256;16.402;2024-02-26T11:13:18;6.27;;;2.10;;
13309;SDS011;6723;48.256;16.402;2024-02-26T11:15:46;3.97;;;2.23;;
13309;SDS011;6723;48.256;16.402;2024-02-26T11:18:16;6.20;;;2.03;;
13309;SDS011;6723;48.256;16.402;2024-02-26T11:20:44;2.87;;;1.90;;
13309;SDS011;6723;48.256;16.402;2024-02-26T11:23:11;4.57;;;2.00;;
13309;SDS011;6723;48.256;16.402;2024-02-26T11:25:37;3.90;;;2.00;;
13309;SDS011;6723;48.256;16.402;2024-02-26T11:28:05;3.37;;;1.83;;
13309;SDS011;6723;48.256;16.402;2024-02-26T11:30:35;3.43;;;1.77;;
13309;SDS011;6723;48.256;16.402;2024-02-26T11:33:06;4.17;;;1.97;;
13309;SDS011;6723;48.256;16.402;2024-02-26T11:35:33;2.83;;;1.73;;
13309;SDS011;6723;48.256;16.402;2024-02-26T11:38:01;2.30;;;1.83;;
13309;SDS011;6723;48.256;16.402;2024-02-26T11:40:27;3.80;;;1.70;;
13309;SDS011;6723;48.256;16.402;2024-02-26T11:42:54;3.13;;;1.70;;
13309;SDS011;6723;48.256;16.402;2024-02-26T11:48:04;3.33;;;1.40;;
13309;SDS011;6723;48.256;16.402;2024-02-26T11:50:53;2.63;;;1.40;;
13309;SDS011;6723;48.256;16.402;2024-02-26T11:58:44;4.10;;;1.40;;
13309;SDS011;6723;48.256;16.402;2024-02-26T12:04:05;3.40;;;1.60;;
13309;SDS011;6723;48.256;16.402;2024-02-26T12:06:43;1.90;;;1.40;;
13309;SDS011;6723;48.256;16.402;2024-02-26T12:09:35;2.80;;;1.30;;
13309;SDS011;6723;48.256;16.402;2024-02-26T12:12:08;2.40;;;1.20;;
13309;SDS011;6723;48.256;16.402;2024-02-26T12:14:39;1.97;;;1.20;;
13309;SDS011;6723;48.256;16.402;2024-02-26T12:17:18;3.40;;;1.50;;
13309;SDS011;6723;48.256;16.402;2024-02-26T12:19:45;2.77;;;1.50;;
13309;SDS011;6723;48.256;16.402;2024-02-26T12:22:12;2.10;;;1.30;;
13309;SDS011;6723;48.256;16.402;2024-02-26T12:24:39;3.13;;;1.30;;
13309;SDS011;6723;48.256;16.402;2024-02-26T12:27:04;2.80;;;1.40;;
13309;SDS011;6723;48.256;16.402;2024-02-26T12:29:31;2.10;;;1.50;;
13309;SDS011;6723;48.256;16.402;2024-02-26T12:31:57;2.13;;;1.20;;
13309;SDS011;6723;48.256;16.402;2024-02-26T12:34:23;2.00;;;1.20;;
13309;SDS011;6723;48.256;16.402;2024-02-26T12:36:49;2.03;;;1.10;;
13309;SDS011;6723;48.256;16.402;2024-02-26T12:39:15;2.33;;;1.30;;
13309;SDS011;6723;48.256;16.402;2024-02-26T12:41:41;1.53;;;0.87;;
13309;SDS011;6723;48.256;16.402;2024-02-26T12:44:14;1.73;;;1.10;;
13309;SDS011;6723;48.256;16.402;2024-02-26T12:46:41;2.13;;;1.10;;
13309;SDS011;6723;48.256;16.402;2024-02-26T12:49:07;1.70;;;1.00;;
13309;SDS011;6723;48.256;16.402;2024-02-26T12:51:33;1.43;;;1.03;;
13309;SDS011;6723;48.256;16.402;2024-02-26T12:53:59;4.50;;;1.10;;
13309;SDS011;6723;48.256;16.402;2024-02-26T12:56:27;2.83;;;1.00;;
13309;SDS011;6723;48.256;16.402;2024-02-26T12:58:53;1.37;;;1.00;;
13309;SDS011;6723;48.256;16.402;2024-02-26T13:01:21;2.00;;;0.97;;
13309;SDS011;6723;48.256;16.402;2024-02-26T13:03:49;2.63;;;1.20;;
13309;SDS011;6723;48.256;16.402;2024-02-26T13:06:17;1.80;;;1.00;;
13309;SDS011;6723;48.256;16.402;2024-02-26T13:08:43;2.10;;;1.07;;
13309;SDS011;6723;48.256;16.402;2024-02-26T13:11:10;3.63;;;1.10;;
13309;SDS011;6723;48.256;16.402;2024-02-26T13:13:36;3.03;;;1.30;;
13309;SDS011;6723;48.256;16.402;2024-02-26T13:16:02;2.03;;;1.10;;
13309;SDS011;6723;48.256;16.402;2024-02-26T13:18:29;4.33;;;1.00;;
13309;SDS011;6723;48.256;16.402;2024-02-26T13:21:11;1.13;;;0.80;;
13309;SDS011;6723;48.256;16.402;2024-02-26T13:23:43;1.90;;;0.80;;
13309;SDS011;6723;48.256;16.402;2024-02-26T13:26:13;2.07;;;1.00;;
13309;SDS011;6723;48.256;16.402;2024-02-26T13:28:39;1.50;;;0.90;;
13309;SDS011;6723;48.256;16.402;2024-02-26T13:31:06;1.57;;;1.00;;
13309;SDS011;6723;48.256;16.402;2024-02-26T13:33:33;1.73;;;0.90;;
13309;SDS011;6723;48.256;16.402;2024-02-26T13:35:59;2.57;;;1.10;;
13309;SDS011;6723;48.256;16.402;2024-02-26T13:38:26;0.97;;;0.90;;
13309;SDS011;6723;48.256;16.402;2024-02-26T13:40:53;1.63;;;0.90;;
13309;SDS011;6723;48.256;16.402;2024-02-26T13:43:19;3.07;;;0.80;;
13309;SDS011;6723;48.256;16.402;2024-02-26T13:45:46;3.03;;;0.80;;
13309;SDS011;6723;48.256;16.402;2024-02-26T13:48:12;2.80;;;0.77;;
13309;SDS011;6723;48.256;16.402;2024-02-26T13:50:40;0.93;;;0.80;;
13309;SDS011;6723;48.256;16.402;2024-02-26T13:53:08;2.33;;;1.03;;
13309;SDS011;6723;48.256;16.402;2024-02-26T13:55:34;1.07;;;0.80;;
13309;SDS011;6723;48.256;16.402;2024-02-26T13:58:00;3.30;;;1.00;;
13309;SDS011;6723;48.256;16.402;2024-02-26T14:00:27;1.50;;;0.83;;
13309;SDS011;6723;48.256;16.402;2024-02-26T14:02:54;2.97;;;1.00;;
13309;SDS011;6723;48.256;16.402;2024-02-26T14:05:20;1.63;;;1.10;;
13309;SDS011;6723;48.256;16.402;2024-02-26T14:07:46;2.40;;;1.00;;
13309;SDS011;6723;48.256;16.402;2024-02-26T14:10:12;2.90;;;0.80;;
13309;SDS011;6723;48.256;16.402;2024-02-26T14:12:38;1.97;;;0.97;;
13309;SDS011;6723;48.256;16.402;2024-02-26T14:15:07;2.03;;;0.70;;
13309;SDS011;6723;48.256;16.402;2024-02-26T14:17:35;2.23;;;1.10;;
13309;SDS011;6723;48.256;16.402;2024-02-26T14:20:01;1.73;;;1.00;;
13309;SDS011;6723;48.256;16.402;2024-02-26T14:22:27;1.87;;;0.90;;
13309;SDS011;6723;48.256;16.402;2024-02-26T14:24:53;2.43;;;0.70;;
13309;SDS011;6723;48.256;16.402;2024-02-26T14:27:19;4.27;;;1.03;;
13309;SDS011;6723;48.256;16.402;2024-02-26T14:29:47;1.23;;;0.90;;
13309;SDS011;6723;48.256;16.402;2024-02-26T14:32:13;0.83;;;0.80;;
13309;SDS011;6723;48.256;16.402;2024-02-26T14:34:39;2.40;;;0.90;;
13309;SDS011;6723;48.256;16.402;2024-02-26T14:37:06;2.87;;;0.97;;
13309;SDS011;6723;48.256;16.402;2024-02-26T14:39:32;3.13;;;1.00;;
13309;SDS011;6723;48.256;16.402;2024-02-26T14:41:58;1.00;;;0.80;;
13309;SDS011;6723;48.256;16.402;2024-02-26T14:44:25;2.17;;;0.90;;
13309;SDS011;6723;48.256;16.402;2024-02-26T14:46:51;2.10;;;1.00;;
13309;SDS011;6723;48.256;16.402;2024-02-26T14:49:17;2.50;;;1.00;;
13309;SDS011;6723;48.256;16.402;2024-02-26T14:51:43;4.23;;;0.97;;
13309;SDS011;6723;48.256;16.402;2024-02-26T14:54:10;2.87;;;1.10;;
13309;SDS011;6723;48.256;16.402;2024-02-26T14:56:37;0.80;;;0.80;;
13309;SDS011;6723;48.256;16.402;2024-02-26T14:59:03;1.53;;;0.77;;